Time;durP1;ratioP1;P1;durP2;ratioP2;P2;SDS_P1;SDS_P2;PMS_P1;PMS_P2;Temp;Humidity;BMP_temperature;BMP_pressure;BME280_temperature;BME280_humidity;BME280_pressure;Samples;Min_cycle;Max_cycle;Signal;HPM_P1;HPM_P2
2021/12/08 00:00:25;;;;;;;;;;;;;;;17.89;66.14;99852.47;4997057;28;1443;-70
2021/12/08 00:02:54;;;;;;;;;;;;;;;17.97;66.27;99873.13;4996900;28;1545;-69
2021/12/08 00:05:22;;;;;;;;;;;;;;;17.92;66.06;99886.09;4993348;28;1580;-69
2021/12/08 00:07:49;;;;;;;;;;;;;;;17.88;66.05;99890.91;4997144;28;1705;-66
2021/12/08 00:10:40;;;;;;;;;;;;;;;17.92;66.06;99901.31;4995201;28;1348;-69
2021/12/08 00:13:06;;;;;;;;;;;;;;;17.95;65.89;99890.34;4997027;28;1809;-67
2021/12/08 00:15:34;;;;;;;;;;;;;;;17.96;65.98;99902.69;4986838;28;1526;-69
2021/12/08 00:18:01;;;;;;;;;;;;;;;17.91;65.97;99896.97;4996895;28;1976;-67
2021/12/08 00:20:31;;;;;;;;;;;;;;;17.92;65.50;99885.28;4994940;28;1410;-67
2021/12/08 00:22:58;;;;;;;;;;;;;;;17.94;65.56;99885.97;4997162;28;1571;-67
2021/12/08 00:25:26;;;;;;;;;;;;;;;17.89;65.99;99889.94;4995630;28;1312;-69
2021/12/08 00:27:52;;;;;;;;;;;;;;;17.95;65.95;99903.72;4996684;28;1601;-67
2021/12/08 00:30:19;;;;;;;;;;;;;;;17.97;65.85;99896.38;4993635;28;1545;-66
2021/12/08 00:32:46;;;;;;;;;;;;;;;17.96;65.29;99900.88;4995705;28;1630;-67
2021/12/08 00:35:13;;;;;;;;;;;;;;;17.89;65.38;99897.97;4996658;28;1395;-69
2021/12/08 00:37:40;;;;;;;;;;;;;;;17.93;65.83;99898.50;4997590;28;1971;-66
2021/12/08 00:40:08;;;;;;;;;;;;;;;17.89;66.08;99905.16;4992709;28;1570;-69
2021/12/08 00:42:36;;;;;;;;;;;;;;;17.87;65.99;99897.25;4994993;28;1486;-67
2021/12/08 00:45:04;;;;;;;;;;;;;;;17.94;65.43;99904.69;4996375;28;1481;-66
2021/12/08 00:47:30;;;;;;;;;;;;;;;17.89;66.00;99916.69;4996789;28;1548;-70
2021/12/08 00:49:57;;;;;;;;;;;;;;;17.85;66.11;99899.25;4996308;28;1985;-69
2021/12/08 00:52:28;;;;;;;;;;;;;;;17.89;65.76;99910.50;4988977;28;1753;-70
2021/12/08 00:54:54;;;;;;;;;;;;;;;17.86;66.46;99898.25;4996628;28;1685;-67
2021/12/08 00:57:21;;;;;;;;;;;;;;;17.89;65.81;99903.31;4995977;28;1973;-67
2021/12/08 00:59:49;;;;;;;;;;;;;;;17.91;65.97;99910.34;4996863;28;1036;-69
2021/12/08 01:02:15;;;;;;;;;;;;;;;17.86;65.65;99902.75;4994906;28;1727;-66
2021/12/08 01:04:49;;;;;;;;;;;;;;;17.85;66.13;99909.13;4996609;28;1475;-66
2021/12/08 01:07:15;;;;;;;;;;;;;;;17.84;65.82;99908.25;4996336;28;1642;-70
2021/12/08 01:09:42;;;;;;;;;;;;;;;17.83;65.75;99911.06;4985670;28;1623;-67
2021/12/08 01:12:09;;;;;;;;;;;;;;;17.88;65.79;99925.69;4996513;28;1578;-69
2021/12/08 01:14:36;;;;;;;;;;;;;;;17.87;66.07;99921.34;4995548;28;1123;-70
2021/12/08 01:17:05;;;;;;;;;;;;;;;17.90;65.85;99909.50;4996110;28;1698;-65
2021/12/08 01:19:31;;;;;;;;;;;;;;;17.80;66.06;99922.88;4994293;28;1906;-67
2021/12/08 01:21:58;;;;;;;;;;;;;;;17.83;66.00;99911.94;4995964;28;1538;-66
2021/12/08 01:24:25;;;;;;;;;;;;;;;17.85;65.84;99914.47;4995668;28;1584;-69
2021/12/08 01:26:51;;;;;;;;;;;;;;;17.80;66.05;99917.53;4996204;28;1005;-67
2021/12/08 01:29:18;;;;;;;;;;;;;;;17.84;65.74;99918.94;4996008;28;1754;-67
2021/12/08 01:31:44;;;;;;;;;;;;;;;17.85;65.70;99907.28;4992052;28;1630;-69
2021/12/08 01:34:13;;;;;;;;;;;;;;;17.87;65.83;99899.94;4995569;28;1690;-66
2021/12/08 01:36:40;;;;;;;;;;;;;;;17.87;65.87;99904.47;4994461;28;1595;-66
2021/12/08 01:39:07;;;;;;;;;;;;;;;17.85;66.03;99901.91;4995422;28;1986;-69
2021/12/08 01:41:34;;;;;;;;;;;;;;;17.81;65.98;99897.84;4993276;28;1537;-67
2021/12/08 01:46:45;;;;;;;;;;;;;;;17.83;65.80;99906.56;4992454;28;1582;-66
2021/12/08 01:49:13;;;;;;;;;;;;;;;17.84;65.85;99915.44;4995846;28;1642;-69
2021/12/08 01:51:39;;;;;;;;;;;;;;;17.83;65.70;99916.41;4994999;28;1680;-66
2021/12/08 01:54:06;;;;;;;;;;;;;;;17.79;65.76;99907.84;4994822;28;1576;-70
2021/12/08 01:56:33;;;;;;;;;;;;;;;17.81;65.64;99913.88;4996572;28;1056;-67
2021/12/08 01:59:01;;;;;;;;;;;;;;;17.83;66.00;99916.41;4995042;28;1977;-71
2021/12/08 02:01:29;;;;;;;;;;;;;;;17.81;65.67;99913.88;4993501;28;1493;-69
2021/12/08 02:03:56;;;;;;;;;;;;;;;17.74;65.83;99909.25;4994966;28;1443;-69
2021/12/08 02:06:25;;;;;;;;;;;;;;;17.72;66.44;99917.44;4995404;28;1587;-69
2021/12/08 02:08:52;;;;;;;;;;;;;;;17.75;66.01;99919.81;4994014;28;1642;-69
2021/12/08 02:11:19;;;;;;;;;;;;;;;17.74;66.04;99918.13;4993003;28;1708;-66
2021/12/08 02:13:48;;;;;;;;;;;;;;;17.77;66.02;99923.19;4995151;28;1719;-66
2021/12/08 02:16:16;;;;;;;;;;;;;;;17.75;65.64;99913.63;4994877;28;1462;-69
2021/12/08 02:18:43;;;;;;;;;;;;;;;17.76;65.76;99936.69;4994371;28;1976;-66
2021/12/08 02:21:21;;;;;;;;;;;;;;;17.72;65.76;99925.44;4991158;28;1513;-69
2021/12/08 02:23:48;;;;;;;;;;;;;;;17.77;65.79;99931.22;4994998;28;1443;-67
2021/12/08 02:26:15;;;;;;;;;;;;;;;17.75;65.70;99918.97;4995902;28;1336;-66
2021/12/08 02:28:41;;;;;;;;;;;;;;;17.75;65.70;99935.03;4994931;28;1726;-69
2021/12/08 02:31:12;;;;;;;;;;;;;;;17.73;65.87;99927.16;4993587;28;1478;-69
2021/12/08 02:47:31;;;;;;;;;;;;;;;17.77;65.67;99935.72;4995089;28;719;-69
2021/12/08 02:49:58;;;;;;;;;;;;;;;17.72;65.68;99941.50;4988294;28;1727;-67
2021/12/08 02:52:26;;;;;;;;;;;;;;;17.74;65.69;99944.84;4993150;28;1572;-67
2021/12/08 02:54:53;;;;;;;;;;;;;;;17.72;65.76;99952.19;4994683;28;2095;-67
2021/12/08 02:57:25;;;;;;;;;;;;;;;17.70;66.00;99946.16;4998261;28;1687;-67
2021/12/08 02:59:52;;;;;;;;;;;;;;;17.79;65.93;99947.13;4997699;28;1973;-66
2021/12/08 03:02:18;;;;;;;;;;;;;;;17.80;65.78;99949.63;5116734;23;1923;-48
2021/12/08 03:04:46;;;;;;;;;;;;;;;17.72;65.75;99948.69;5054459;28;1619;-48
2021/12/08 03:07:15;;;;;;;;;;;;;;;17.75;66.00;99945.72;5053629;28;1589;-48
2021/12/08 03:09:47;;;;;;;;;;;;;;;17.72;66.01;99962.88;5054435;28;1743;-49
2021/12/08 03:12:14;;;;;;;;;;;;;;;17.76;65.91;99958.94;5054982;28;2004;-48
2021/12/08 03:14:44;;;;;;;;;;;;;;;17.72;65.81;99946.84;5055162;28;1515;-48
2021/12/08 03:17:15;;;;;;;;;;;;;;;17.68;65.98;99950.81;5055376;28;1554;-49
2021/12/08 03:19:43;;;;;;;;;;;;;;;17.71;65.65;99958.53;5054438;28;1910;-48
2021/12/08 03:22:14;;;;;;;;;;;;;;;17.70;65.88;99948.81;5054815;28;1530;-48
2021/12/08 03:24:47;;;;;;;;;;;;;;;17.68;65.90;99945.44;5054449;28;1894;-48
2021/12/08 03:27:25;;;;;;;;;;;;;;;17.73;65.86;99953.06;5054555;28;1795;-48
2021/12/08 03:29:59;;;;;;;;;;;;;;;17.74;65.47;99960.06;5050090;28;1618;-48
2021/12/08 03:32:37;;;;;;;;;;;;;;;17.72;65.96;99962.88;5052286;28;1615;-51
2021/12/08 03:35:05;;;;;;;;;;;;;;;17.69;65.72;99963.19;5055103;28;1063;-49
2021/12/08 03:37:37;;;;;;;;;;;;;;;17.73;65.85;99964.59;5055101;28;1078;-49
2021/12/08 03:40:06;;;;;;;;;;;;;;;17.73;65.35;99963.75;5054321;28;1910;-48
2021/12/08 03:42:42;;;;;;;;;;;;;;;17.71;65.93;99979.94;5054514;28;1690;-49
2021/12/08 03:45:10;;;;;;;;;;;;;;;17.72;65.66;99972.75;5039618;28;1950;-48
2021/12/08 03:47:41;;;;;;;;;;;;;;;17.68;65.62;99961.50;5054186;28;1730;-49
2021/12/08 03:50:11;;;;;;;;;;;;;;;17.77;65.07;99976.66;5034686;28;1641;-49
2021/12/08 03:52:38;;;;;;;;;;;;;;;17.74;65.70;99962.75;5054623;28;1091;-49
2021/12/08 03:55:07;;;;;;;;;;;;;;;17.72;65.60;99967.41;5053672;28;1811;-48
2021/12/08 03:57:35;;;;;;;;;;;;;;;17.76;65.88;99984.84;5053489;28;1935;-48
2021/12/08 04:00:04;;;;;;;;;;;;;;;17.73;65.85;99975.28;5053708;28;1981;-49
2021/12/08 04:02:33;;;;;;;;;;;;;;;17.70;65.38;99976.41;5053558;28;1471;-49
2021/12/08 04:05:02;;;;;;;;;;;;;;;17.69;65.68;99979.25;5053848;28;1023;-48
2021/12/08 04:07:31;;;;;;;;;;;;;;;17.71;65.87;99987.97;5052610;28;1810;-48
2021/12/08 04:09:59;;;;;;;;;;;;;;;17.66;65.70;99983.03;5053845;28;1624;-49
2021/12/08 04:12:28;;;;;;;;;;;;;;;17.60;65.91;99988.13;5053569;28;1606;-49
2021/12/08 04:15:02;;;;;;;;;;;;;;;17.66;65.60;100003.56;5054206;28;1619;-48
2021/12/08 04:17:34;;;;;;;;;;;;;;;17.68;65.87;100006.94;5034329;28;2032;-49
2021/12/08 04:20:05;;;;;;;;;;;;;;;17.68;65.52;100004.28;5053916;28;1914;-48
2021/12/08 04:22:49;;;;;;;;;;;;;;;17.66;65.63;100000.91;5053989;28;1159;-49
2021/12/08 04:25:18;;;;;;;;;;;;;;;17.74;65.60;100009.03;5054314;28;1207;-49
2021/12/08 04:27:46;;;;;;;;;;;;;;;17.88;65.02;100000.56;5053290;28;1672;-49
2021/12/08 04:30:24;;;;;;;;;;;;;;;17.81;65.25;100004.81;5052754;28;1621;-48
2021/12/08 04:35:40;;;;;;;;;;;;;;;17.82;64.90;100011.81;5037109;28;2453;-48
2021/12/08 04:38:13;;;;;;;;;;;;;;;17.78;65.34;100017.63;5036311;28;1814;-48
2021/12/08 04:41:01;;;;;;;;;;;;;;;17.77;65.86;100027.47;5053858;28;1981;-48
2021/12/08 04:43:34;;;;;;;;;;;;;;;17.80;65.26;100031.69;5051310;28;1678;-49
2021/12/08 04:46:13;;;;;;;;;;;;;;;17.74;65.39;100025.09;5053378;28;1639;-48
2021/12/08 04:49:03;;;;;;;;;;;;;;;17.80;65.06;100029.84;5052717;28;1561;-49
2021/12/08 04:51:44;;;;;;;;;;;;;;;17.80;65.72;100024.50;5052583;28;1961;-49
2021/12/08 05:00:40;;;;;;;;;;;;;;;17.79;65.58;100051.41;5052907;28;1976;-48
2021/12/08 05:06:19;;;;;;;;;;;;;;;17.83;65.38;100042.09;5042736;28;1594;-51
2021/12/08 05:08:47;;;;;;;;;;;;;;;17.78;65.57;100036.34;5053108;28;1756;-50
2021/12/08 05:11:20;;;;;;;;;;;;;;;17.78;65.50;100050.53;5052658;28;1566;-50
2021/12/08 05:13:48;;;;;;;;;;;;;;;17.81;65.23;100052.09;5052792;28;1952;-49
2021/12/08 05:16:16;;;;;;;;;;;;;;;17.79;65.40;100059.44;5053568;28;1058;-48
2021/12/08 05:18:48;;;;;;;;;;;;;;;17.80;65.72;100059.25;5052464;28;1974;-48
2021/12/08 05:21:17;;;;;;;;;;;;;;;17.79;65.84;100059.44;5052706;28;1724;-48
2021/12/08 05:23:48;;;;;;;;;;;;;;;17.79;65.74;100062.09;5049230;28;1754;-50
2021/12/08 05:26:16;;;;;;;;;;;;;;;17.84;65.76;100059.84;5048615;28;1774;-50
2021/12/08 05:28:45;;;;;;;;;;;;;;;17.77;65.60;100051.56;5043512;28;1691;-50
2021/12/08 05:31:16;;;;;;;;;;;;;;;17.76;65.72;100076.59;5052020;28;1677;-51
2021/12/08 05:33:59;;;;;;;;;;;;;;;17.78;66.26;100079.97;5052478;28;1944;-51
2021/12/08 05:36:31;;;;;;;;;;;;;;;17.76;65.64;100060.53;5051208;28;1633;-50
2021/12/08 05:38:59;;;;;;;;;;;;;;;17.78;65.65;100076.44;5033096;28;1910;-52
2021/12/08 05:41:37;;;;;;;;;;;;;;;17.65;65.69;100076.78;5052418;28;953;-50
2021/12/08 05:44:04;;;;;;;;;;;;;;;17.28;66.51;100085.50;5051188;28;1546;-51
2021/12/08 05:46:41;;;;;;;;;;;;;;;17.15;67.02;100087.63;5051773;28;1697;-51
2021/12/08 05:49:13;;;;;;;;;;;;;;;17.03;65.27;100093.09;5052062;28;1497;-51
2021/12/08 05:51:55;;;;;;;;;;;;;;;16.89;66.28;100081.00;5051528;28;1919;-50
2021/12/08 05:54:29;;;;;;;;;;;;;;;17.06;66.72;100083.97;5051992;28;1931;-50
2021/12/08 05:57:04;;;;;;;;;;;;;;;17.07;66.32;100093.69;5050216;28;1641;-51
2021/12/08 05:59:52;;;;;;;;;;;;;;;17.32;66.33;100100.28;5051610;28;1975;-50
2021/12/08 06:02:20;;;;;;;;;;;;;;;17.57;65.58;100098.03;5044698;28;1385;-53
2021/12/08 06:04:48;;;;;;;;;;;;;;;17.65;65.45;100090.16;5051831;28;1820;-50
2021/12/08 06:07:15;;;;;;;;;;;;;;;17.81;65.31;100106.44;5051523;28;1984;-50
2021/12/08 06:09:48;;;;;;;;;;;;;;;17.93;64.77;100092.94;5052054;28;1789;-50
2021/12/08 06:12:17;;;;;;;;;;;;;;;18.04;64.31;100108.78;5045413;28;1606;-51
2021/12/08 06:14:44;;;;;;;;;;;;;;;18.16;64.50;100114.81;5052542;28;1051;-51
2021/12/08 06:17:24;;;;;;;;;;;;;;;18.14;64.72;100111.44;5051634;28;1581;-50
2021/12/08 06:20:15;;;;;;;;;;;;;;;18.19;64.67;100115.38;5051066;28;1970;-50
2021/12/08 06:22:46;;;;;;;;;;;;;;;18.23;64.06;100118.59;5051709;28;1063;-50
2021/12/08 06:25:18;;;;;;;;;;;;;;;18.10;64.69;100126.94;5051396;28;1597;-50
2021/12/08 06:27:46;;;;;;;;;;;;;;;17.76;65.03;100119.38;5043570;28;1988;-50
2021/12/08 06:30:14;;;;;;;;;;;;;;;17.73;65.69;100127.69;5050764;28;1688;-50
2021/12/08 06:32:47;;;;;;;;;;;;;;;17.92;65.21;100123.34;5050559;28;2053;-51
2021/12/08 06:35:18;;;;;;;;;;;;;;;18.01;64.48;100134.00;5049889;28;1474;-50
2021/12/08 06:37:46;;;;;;;;;;;;;;;18.04;64.61;100127.53;5049669;28;1204;-51
2021/12/08 06:40:15;;;;;;;;;;;;;;;18.04;64.65;100139.06;5051143;28;1980;-50
2021/12/08 06:42:57;;;;;;;;;;;;;;;18.04;64.37;100133.72;5049838;28;1585;-50
2021/12/08 06:45:28;;;;;;;;;;;;;;;18.15;64.28;100140.75;5048876;28;2854;-50
2021/12/08 06:47:56;;;;;;;;;;;;;;;18.13;64.59;100136.53;5050817;28;1522;-50
2021/12/08 06:50:25;;;;;;;;;;;;;;;18.12;64.81;100151.72;5049470;28;1518;-50
2021/12/08 06:52:52;;;;;;;;;;;;;;;18.12;64.84;100151.72;5048487;28;1494;-50
2021/12/08 06:55:30;;;;;;;;;;;;;;;18.00;65.06;100158.22;5050287;28;1212;-51
2021/12/08 06:58:05;;;;;;;;;;;;;;;17.96;64.90;100172.88;5046992;28;1649;-50
2021/12/08 07:01:12;;;;;;;;;;;;;;;17.87;65.40;100159.38;5050099;28;1993;-51
2021/12/08 07:03:46;;;;;;;;;;;;;;;17.84;65.72;100180.22;5051470;28;1081;-50
2021/12/08 07:06:30;;;;;;;;;;;;;;;17.76;65.65;100183.56;5050389;28;1690;-50
2021/12/08 07:09:08;;;;;;;;;;;;;;;17.74;65.37;100174.84;5051413;28;3427;-50
2021/12/08 07:11:35;;;;;;;;;;;;;;;17.74;65.67;100184.69;5050703;28;1603;-50
2021/12/08 07:14:02;;;;;;;;;;;;;;;17.73;65.71;100178.50;5042972;28;1810;-51
2021/12/08 07:16:35;;;;;;;;;;;;;;;17.76;65.58;100180.88;5050972;28;1569;-50
2021/12/08 07:19:22;;;;;;;;;;;;;;;17.75;65.99;100173.03;5051282;28;1989;-50
2021/12/08 07:22:04;;;;;;;;;;;;;;;17.68;65.80;100183.44;5050543;28;1679;-50
2021/12/08 07:24:33;;;;;;;;;;;;;;;17.70;66.41;100178.78;5050551;28;1638;-50
2021/12/08 07:27:03;;;;;;;;;;;;;;;17.71;65.78;100172.47;5051546;28;1072;-50
2021/12/08 07:29:40;;;;;;;;;;;;;;;17.72;65.77;100181.31;5051310;28;1057;-50
2021/12/08 07:32:15;;;;;;;;;;;;;;;17.62;65.94;100178.66;5049385;28;1743;-49
2021/12/08 07:34:45;;;;;;;;;;;;;;;17.64;65.94;100184.69;5050462;28;1973;-50
2021/12/08 07:37:16;;;;;;;;;;;;;;;17.72;65.35;100174.13;5049766;28;1658;-49
2021/12/08 07:39:46;;;;;;;;;;;;;;;17.70;65.64;100192.16;5050807;28;2026;-50
2021/12/08 07:42:20;;;;;;;;;;;;;;;17.69;65.63;100194.00;5052081;28;1770;-50
2021/12/08 07:44:49;;;;;;;;;;;;;;;17.72;66.50;100192.84;5040994;28;1509;-50
2021/12/08 07:47:19;;;;;;;;;;;;;;;17.76;65.62;100190.75;5055507;28;1056;-50
2021/12/08 07:49:48;;;;;;;;;;;;;;;17.68;65.68;100202.16;5054059;28;1612;-50
2021/12/08 07:52:19;;;;;;;;;;;;;;;17.65;65.87;100202.44;5054298;28;1999;-50
2021/12/08 07:54:50;;;;;;;;;;;;;;;17.72;65.55;100203.56;5054404;28;1771;-50
2021/12/08 07:57:20;;;;;;;;;;;;;;;17.72;66.12;100198.19;5035618;28;1655;-50
2021/12/08 07:59:51;;;;;;;;;;;;;;;17.71;65.57;100201.88;5054024;28;1985;-51
2021/12/08 08:02:25;;;;;;;;;;;;;;;17.71;65.65;100212.56;5052961;28;1598;-50
2021/12/08 08:05:05;;;;;;;;;;;;;;;17.74;65.45;100217.63;5054826;28;1046;-50
2021/12/08 08:07:36;;;;;;;;;;;;;;;17.76;65.22;100220.16;5054882;28;1211;-50
2021/12/08 08:10:12;;;;;;;;;;;;;;;17.69;65.82;100231.44;5053718;28;1979;-50
2021/12/08 08:13:02;;;;;;;;;;;;;;;17.78;65.39;100223.53;5052593;28;1867;-50
2021/12/08 08:15:30;;;;;;;;;;;;;;;17.76;65.53;100215.66;5053838;28;1623;-50
2021/12/08 08:18:06;;;;;;;;;;;;;;;17.85;65.09;100219.38;5053557;28;1784;-50
2021/12/08 08:20:36;;;;;;;;;;;;;;;17.74;65.49;100217.63;5053320;28;1905;-50
2021/12/08 08:23:04;;;;;;;;;;;;;;;17.74;65.74;100222.13;5053179;28;1737;-50
2021/12/08 08:25:41;;;;;;;;;;;;;;;17.69;65.51;100219.88;5054464;28;994;-50
2021/12/08 08:28:08;;;;;;;;;;;;;;;17.72;65.87;100224.94;5044997;28;1563;-51
2021/12/08 08:30:39;;;;;;;;;;;;;;;17.74;65.34;100222.97;5040271;28;1649;-50
2021/12/08 08:33:09;;;;;;;;;;;;;;;17.70;65.44;100216.22;5053360;28;1693;-50
2021/12/08 08:35:37;;;;;;;;;;;;;;;17.82;65.31;100231.13;5053345;28;1817;-52
2021/12/08 08:38:10;;;;;;;;;;;;;;;17.80;65.31;100238.44;5051761;28;1804;-50
2021/12/08 08:40:57;;;;;;;;;;;;;;;17.83;65.24;100232.88;5053113;28;1906;-50
2021/12/08 08:43:28;;;;;;;;;;;;;;;17.94;64.89;100225.69;5044925;28;1652;-51
2021/12/08 08:46:01;;;;;;;;;;;;;;;18.03;64.56;100222.16;5038061;28;1945;-50
2021/12/08 08:48:39;;;;;;;;;;;;;;;17.97;65.20;100217.38;5047165;28;1638;-49
2021/12/08 08:51:21;;;;;;;;;;;;;;;17.95;65.09;100216.69;5052021;28;1653;-50
2021/12/08 08:53:49;;;;;;;;;;;;;;;17.98;64.92;100205.69;5040200;28;1613;-50
2021/12/08 08:56:20;;;;;;;;;;;;;;;17.89;65.35;100210.06;5045712;28;1592;-49
2021/12/08 08:58:52;;;;;;;;;;;;;;;17.47;65.63;100221.84;5047640;28;2042;-50
2021/12/08 09:01:29;;;;;;;;;;;;;;;17.34;66.46;100202.53;5053454;28;1973;-49
2021/12/08 09:04:11;;;;;;;;;;;;;;;17.14;66.65;100206.16;5047454;28;1472;-50
2021/12/08 09:06:47;;;;;;;;;;;;;;;17.13;66.49;100212.47;5053558;28;1711;-50
2021/12/08 09:09:19;;;;;;;;;;;;;;;17.16;66.79;100205.03;5053089;28;1143;-50
2021/12/08 09:11:51;;;;;;;;;;;;;;;17.42;66.37;100200.00;5052373;28;1745;-50
2021/12/08 09:14:20;;;;;;;;;;;;;;;17.72;65.68;100206.22;5052237;28;1604;-50
2021/12/08 09:16:49;;;;;;;;;;;;;;;17.90;65.22;100209.06;5052390;28;2097;-51
2021/12/08 09:19:27;;;;;;;;;;;;;;;18.15;64.83;100193.44;5048388;28;2121;-50
2021/12/08 09:22:08;;;;;;;;;;;;;;;18.26;64.47;100193.22;5046628;28;1981;-50
2021/12/08 09:24:44;;;;;;;;;;;;;;;18.55;63.33;100192.31;5048969;28;1906;-50
2021/12/08 09:27:22;;;;;;;;;;;;;;;18.49;63.52;100180.34;5043622;28;1682;-50
2021/12/08 09:29:55;;;;;;;;;;;;;;;18.62;64.00;100188.91;5036954;28;1543;-50
2021/12/08 09:32:30;;;;;;;;;;;;;;;18.56;64.11;100186.81;5044855;28;1789;-49
2021/12/08 09:35:14;;;;;;;;;;;;;;;18.43;63.84;100178.28;5042726;28;1712;-49
2021/12/08 09:38:02;;;;;;;;;;;;;;;18.04;65.62;100178.34;5043101;28;1479;-49
2021/12/08 09:40:37;;;;;;;;;;;;;;;17.89;65.77;100172.63;5047954;28;1983;-49
2021/12/08 09:43:08;;;;;;;;;;;;;;;17.91;65.64;100183.19;5049614;28;1548;-49
2021/12/08 09:45:41;;;;;;;;;;;;;;;17.88;66.10;100187.81;5051580;28;1661;-48
2021/12/08 09:48:11;;;;;;;;;;;;;;;17.82;65.82;100172.28;5053011;28;1675;-48
2021/12/08 09:50:45;;;;;;;;;;;;;;;17.76;66.19;100183.56;5051179;28;2080;-49
2021/12/08 09:53:16;;;;;;;;;;;;;;;17.80;66.33;100184.97;5036700;28;2115;-48
2021/12/08 09:55:45;;;;;;;;;;;;;;;17.88;66.08;100182.44;5041160;28;1463;-48
2021/12/08 09:58:14;;;;;;;;;;;;;;;17.87;66.10;100190.66;5048359;28;1869;-49
2021/12/08 10:00:45;;;;;;;;;;;;;;;17.86;66.13;100194.28;5052891;28;1902;-49
2021/12/08 10:03:13;;;;;;;;;;;;;;;17.81;65.85;100185.84;5053276;28;1794;-49
2021/12/08 10:05:45;;;;;;;;;;;;;;;17.85;65.87;100180.06;5053079;28;1661;-49
2021/12/08 10:08:15;;;;;;;;;;;;;;;17.88;65.54;100182.44;5052866;28;1556;-49
2021/12/08 10:10:44;;;;;;;;;;;;;;;17.83;65.76;100184.72;5049259;28;1766;-49
2021/12/08 10:13:12;;;;;;;;;;;;;;;17.80;66.06;100174.25;5052457;28;1865;-49
2021/12/08 10:15:41;;;;;;;;;;;;;;;17.85;65.76;100182.75;5051502;28;1731;-49
2021/12/08 10:18:08;;;;;;;;;;;;;;;17.85;66.13;100193.44;5051846;28;1600;-49
2021/12/08 10:20:37;;;;;;;;;;;;;;;17.80;65.96;100179.63;5046922;28;2034;-48
2021/12/08 10:23:19;;;;;;;;;;;;;;;17.76;66.12;100186.25;5043576;28;1668;-47
2021/12/08 10:25:50;;;;;;;;;;;;;;;17.76;65.69;100183.56;5046508;28;2119;-48
2021/12/08 10:28:18;;;;;;;;;;;;;;;17.72;66.28;100178.66;5052683;28;1956;-47
2021/12/08 10:30:53;;;;;;;;;;;;;;;17.79;66.03;100169.09;5052260;28;1773;-49
2021/12/08 10:33:45;;;;;;;;;;;;;;;17.76;66.03;100180.88;5044092;28;1699;-48
2021/12/08 10:36:32;;;;;;;;;;;;;;;17.76;65.95;100172.88;5052364;28;1839;-48
2021/12/08 10:39:05;;;;;;;;;;;;;;;17.78;66.25;100191.44;5052004;28;1946;-48
2021/12/08 10:41:45;;;;;;;;;;;;;;;17.78;66.34;100189.63;5053595;28;2005;-48
2021/12/08 10:44:14;;;;;;;;;;;;;;;17.85;66.07;100204.16;5052649;28;1900;-49
2021/12/08 10:46:42;;;;;;;;;;;;;;;17.92;65.81;100168.81;5052490;28;1844;-48
2021/12/08 10:49:19;;;;;;;;;;;;;;;17.91;65.29;100189.38;5052146;28;1870;-47
2021/12/08 10:54:35;;;;;;;;;;;;;;;17.94;65.31;100193.59;5048304;28;1509;-48
2021/12/08 10:57:04;;;;;;;;;;;;;;;17.88;65.50;100193.16;5049474;28;1457;-48
2021/12/08 11:00:04;;;;;;;;;;;;;;;17.88;65.69;100177.09;5053025;28;1100;-48
2021/12/08 11:02:54;;;;;;;;;;;;;;;18.00;64.99;100184.97;5043767;28;1898;-48
2021/12/08 11:05:47;;;;;;;;;;;;;;;17.97;64.94;100158.53;5051849;28;1490;-48
2021/12/08 11:08:19;;;;;;;;;;;;;;;18.02;65.22;100193.72;5052957;28;1158;-48
2021/12/08 11:10:58;;;;;;;;;;;;;;;18.13;64.93;100185.53;5051764;28;1502;-49
2021/12/08 11:13:26;;;;;;;;;;;;;;;18.11;65.39;100179.47;5052554;28;1852;-47
2021/12/08 11:16:08;;;;;;;;;;;;;;;18.11;65.79;100171.44;5051258;28;1466;-49
2021/12/08 11:18:39;;;;;;;;;;;;;;;18.11;65.04;100171.44;5050941;28;1540;-47
2021/12/08 11:21:07;;;;;;;;;;;;;;;18.10;65.96;100180.44;5054614;28;1971;-48
2021/12/08 11:23:42;;;;;;;;;;;;;;;18.08;65.51;100182.44;5052620;28;1728;-49
2021/12/08 11:26:19;;;;;;;;;;;;;;;18.10;65.47;100177.78;5055631;28;1835;-48
2021/12/08 11:28:53;;;;;;;;;;;;;;;17.98;66.07;100179.75;5055767;28;1681;-48
2021/12/08 11:31:20;;;;;;;;;;;;;;;18.00;65.72;100182.31;5048273;28;1753;-48
2021/12/08 11:33:54;;;;;;;;;;;;;;;17.87;66.08;100186.13;5056067;28;1999;-48
2021/12/08 11:36:25;;;;;;;;;;;;;;;17.86;66.01;100181.75;5051408;28;1691;-48
2021/12/08 11:38:52;;;;;;;;;;;;;;;17.83;66.14;100195.44;5050651;28;1811;-48
2021/12/08 11:41:38;;;;;;;;;;;;;;;17.83;66.50;100200.78;5053322;28;1954;-48
2021/12/08 11:44:10;;;;;;;;;;;;;;;17.99;65.89;100194.00;5055663;28;1862;-48
2021/12/08 11:46:44;;;;;;;;;;;;;;;18.06;66.21;100200.47;5051528;28;1761;-48
2021/12/08 11:49:13;;;;;;;;;;;;;;;18.06;65.46;100177.25;5054487;28;1778;-47
2021/12/08 11:51:51;;;;;;;;;;;;;;;18.01;65.47;100197.38;5054120;28;1588;-48
2021/12/08 11:54:23;;;;;;;;;;;;;;;17.90;65.98;100195.69;5046071;28;1956;-48
2021/12/08 11:56:53;;;;;;;;;;;;;;;17.95;65.80;100200.63;5037140;28;1784;-48
2021/12/08 11:59:20;;;;;;;;;;;;;;;17.88;65.56;100206.53;5045663;28;2396;-48
2021/12/08 12:01:49;;;;;;;;;;;;;;;17.79;66.62;100207.38;5054779;28;1979;-47
2021/12/08 12:04:16;;;;;;;;;;;;;;;17.85;66.50;100200.63;5048201;28;1798;-48
2021/12/08 12:06:45;;;;;;;;;;;;;;;17.93;66.17;100194.59;5048057;28;2025;-48
2021/12/08 12:09:14;;;;;;;;;;;;;;;17.97;66.16;100212.03;5051657;28;1677;-48
2021/12/08 12:11:41;;;;;;;;;;;;;;;17.93;65.84;100200.78;5055720;28;1737;-48
2021/12/08 12:14:15;;;;;;;;;;;;;;;18.03;66.17;100206.13;5052776;28;1839;-48
2021/12/08 12:16:43;;;;;;;;;;;;;;;18.13;66.16;100204.25;5051206;28;1856;-47
2021/12/08 12:19:16;;;;;;;;;;;;;;;18.20;65.94;100218.75;5054733;28;1717;-47
2021/12/08 12:21:56;;;;;;;;;;;;;;;18.16;65.72;100206.63;5054437;28;1906;-48
2021/12/08 12:24:49;;;;;;;;;;;;;;;18.12;66.08;100188.34;5051480;28;1753;-48
2021/12/08 12:27:22;;;;;;;;;;;;;;;18.06;66.06;100205.81;5054573;28;2002;-48
2021/12/08 12:30:00;;;;;;;;;;;;;;;18.11;66.35;100208.06;5053158;28;1671;-50
2021/12/08 12:32:30;;;;;;;;;;;;;;;18.26;65.82;100206.63;5052326;28;1487;-49
2021/12/08 12:35:09;;;;;;;;;;;;;;;18.39;65.63;100211.69;5055342;28;1357;-47
2021/12/08 12:37:46;;;;;;;;;;;;;;;18.27;66.43;100230.56;5055033;28;1820;-47
2021/12/08 12:40:15;;;;;;;;;;;;;;;18.17;65.68;100219.03;5051052;28;1364;-47
2021/12/08 12:42:49;;;;;;;;;;;;;;;18.03;66.49;100228.34;5040878;28;1906;-48
2021/12/08 12:45:17;;;;;;;;;;;;;;;17.96;66.89;100227.22;5051841;28;1572;-47
2021/12/08 12:48:05;;;;;;;;;;;;;;;17.94;66.62;100234.53;5054454;28;1646;-47
2021/12/08 12:50:53;;;;;;;;;;;;;;;18.00;66.55;100238.50;5051689;28;1770;-47
2021/12/08 12:53:31;;;;;;;;;;;;;;;17.95;66.73;100246.94;5040499;28;1818;-47
2021/12/08 12:56:00;;;;;;;;;;;;;;;17.99;66.40;100236.81;5035517;28;1900;-47
2021/12/08 12:58:43;;;;;;;;;;;;;;;17.93;67.06;100242.72;5054125;28;1884;-47
2021/12/08 13:01:17;;;;;;;;;;;;;;;17.89;66.81;100239.50;5054044;28;1902;-47
2021/12/08 13:03:51;;;;;;;;;;;;;;;17.87;66.77;100233.44;5053505;28;1957;-47
2021/12/08 13:06:35;;;;;;;;;;;;;;;17.93;66.54;100243.56;5049081;28;1974;-47
2021/12/08 13:09:01;;;;;;;;;;;;;;;17.88;66.38;100241.31;5052457;28;1755;-48
2021/12/08 13:11:44;;;;;;;;;;;;;;;17.88;67.01;100233.28;5039315;28;1750;-47
2021/12/08 13:14:23;;;;;;;;;;;;;;;17.98;66.70;100245.81;5053846;28;1481;-47
2021/12/08 13:17:05;;;;;;;;;;;;;;;17.84;67.00;100239.06;5052957;28;1901;-47
2021/12/08 13:19:46;;;;;;;;;;;;;;;17.88;66.63;100269.88;5053184;28;2780;-47
2021/12/08 13:22:38;;;;;;;;;;;;;;;17.85;67.11;100256.81;5050898;28;1906;-47
2021/12/08 13:25:31;;;;;;;;;;;;;;;17.83;67.23;100259.63;5053964;28;1965;-47
2021/12/08 13:28:11;;;;;;;;;;;;;;;17.85;67.06;100268.34;5048181;28;1829;-48
2021/12/08 13:30:43;;;;;;;;;;;;;;;17.83;67.07;100269.44;5044267;28;1739;-47
2021/12/08 13:33:22;;;;;;;;;;;;;;;17.81;67.49;100264.22;5052374;28;1712;-47
2021/12/08 13:35:50;;;;;;;;;;;;;;;17.82;66.81;100273.94;5053285;28;2063;-47
2021/12/08 13:38:16;;;;;;;;;;;;;;;17.83;66.81;100270.31;5052860;28;1768;-48
2021/12/08 13:40:47;;;;;;;;;;;;;;;17.78;67.11;100255.63;5053885;28;1099;-47
2021/12/08 13:43:32;;;;;;;;;;;;;;;17.86;66.85;100267.34;5052904;28;1971;-47
2021/12/08 13:46:01;;;;;;;;;;;;;;;17.84;66.88;100263.13;5052982;28;1905;-47
2021/12/08 13:48:27;;;;;;;;;;;;;;;17.91;66.70;100258.91;5042187;28;1617;-47